Airfield :
LOGIN :

Register | Disclaimer

   EN    FR    IT 

 










Legend :    VFR   Marginal VFR   IFR   Intensive IFR   Very Intensive IFR
Visi :
Ceiling :
>= 8 km
>= 3000ft
5 to 8 km
1000 to 3000 ft
1500m to 5 km
500 to 1000 ft
800 to 1500m
200 to 500 ft
< 800m
< 200 ft
Symbols :   Thunderstorms  Fog  Heavy snow  Heavy precipitations  Wind > 20 kt
SIGMETs :     Misc.  Thunderstorms  Icing  Turbulence  Mountain Waves  Volcanic Ashes







- Airport Elevation : 392 ft
- IATA code : CDG
- Download approach charts


LFPG - Paris-Aeroport Charles De Gaulle

CURRENT METAR :
  • 171100Z 35004KT 300V070 9999 SCT039 22/11 Q1020 NOSIG

EXPIRED METARs :
  • 171030Z 32007KT 280V350 9999 SCT034 22/11 Q1020 NOSIG
  • 171000Z 35008KT 310V020 9999 FEW034 20/12 Q1020 NOSIG
  • 170930Z 34006KT 300V010 9999 SCT027 21/13 Q1020 NOSIG
  • 170900Z 33009KT 9999 FEW025 SCT260 20/12 Q1020 NOSIG
  • 170830Z 34010KT 9999 FEW010 19/13 Q1020 NOSIG

TAF TAF LFPG
Valid from the 17 at 06:00 until the 18 at 12:00 UTC


170500Z 1706/1812 34010KT 9999 BKN045 TX23/1715Z TN13/1806Z
BECMG 1712/1714 CAVOK
ATIS : +33 1 48 62 10 92
No reported NOTAMs for that airfield.
1 SIGMET reported for the Paris FIR (LFFF) :
 
Severe turbulence
LFFF SIGMET 6 VALID 171000/171400 LFPW
LFFF PARIS FIR/UIR SEV TURB FCST WI N4700 E00215 - N4715 E00200 - N4715 E00030 - N5030 E00315 - N5000 E00500 - N4700 E00215 FL250/350 MOV E 20KT INTSF=



MET'MAP, your aeronautical weather chart ! - Copyright ORBIFLY December 2007 - Disclaimer

ORBIFLY MET'MAP TEAM :

Programming & Development : Alexandra Zaïnal
Concept & Development : Baudouin d'Aumeries
Co-Development & Prog : Marc-Olivier Méhu
Technical & hardware support : Manuel Goepfert

Contact : metmap@orbifly.com




SOURCES & CREDITS :

   NOAA